createdAt,value
2022-12-29T00:02:03.650Z,81.31
2022-12-29T00:04:31.138Z,80.77
2022-12-29T00:06:58.951Z,78.27
2022-12-29T00:09:27.738Z,76.21
2022-12-29T00:11:56.489Z,77.71
2022-12-29T00:14:41.486Z,74.35
2022-12-29T00:17:08.945Z,76.43
2022-12-29T00:19:53.955Z,74.84
2022-12-29T00:22:39.205Z,79.18
2022-12-29T00:25:28.001Z,78.18
2022-12-29T00:28:14.565Z,79.05
2022-12-29T00:30:59.915Z,79.98
2022-12-29T00:33:47.476Z,80.11
2022-12-29T00:36:18.752Z,80.68
2022-12-29T00:39:03.987Z,80.32
2022-12-29T00:41:49.323Z,81.86
2022-12-29T00:44:18.217Z,81.50
2022-12-29T00:46:45.846Z,80.94
2022-12-29T00:49:32.891Z,79.85
2022-12-29T00:52:03.062Z,81.39
2022-12-29T00:54:31.312Z,81.46
2022-12-29T00:56:58.764Z,81.73
2022-12-29T00:59:27.710Z,83.25
2022-12-29T01:01:58.649Z,82.74
2022-12-29T01:04:27.748Z,82.16
2022-12-29T01:06:55.199Z,82.38
2022-12-29T01:09:40.348Z,82.91
2022-12-29T01:12:09.017Z,83.14
2022-12-29T01:14:38.736Z,82.84
2022-12-29T01:17:06.430Z,83.97
2022-12-29T01:19:33.935Z,82.45
2022-12-29T01:22:01.492Z,82.91
2022-12-29T01:24:28.914Z,84.37
2022-12-29T01:26:56.390Z,83.26
2022-12-29T01:29:24.066Z,81.62
2022-12-29T01:31:52.873Z,80.78
2022-12-29T01:34:20.336Z,81.76
2022-12-29T01:36:47.838Z,83.30
2022-12-29T01:39:15.211Z,81.45
2022-12-29T01:41:43.683Z,85.49
2022-12-29T01:44:50.310Z,83.72
2022-12-29T01:47:27.375Z,82.06
2022-12-29T01:49:56.885Z,83.41
2022-12-29T01:52:26.140Z,84.63
2022-12-29T01:54:56.848Z,85.66
2022-12-29T01:57:28.047Z,85.04
2022-12-29T01:59:59.824Z,86.95
2022-12-29T02:02:33.243Z,87.26
2022-12-29T02:05:05.200Z,84.72
2022-12-29T02:07:33.272Z,85.22
2022-12-29T02:10:03.670Z,85.89
2022-12-29T02:12:31.065Z,86.52
2022-12-29T02:15:02.127Z,87.35
2022-12-29T02:17:43.552Z,85.84
2022-12-29T02:20:55.736Z,87.36
2022-12-29T02:23:44.491Z,90.56
2022-12-29T02:26:29.041Z,87.62
2022-12-29T02:29:21.705Z,87.90
2022-12-29T02:31:55.747Z,84.72
2022-12-29T02:34:27.219Z,87.05
2022-12-29T02:37:05.426Z,83.02
2022-12-29T02:39:40.877Z,82.99
2022-12-29T02:42:15.225Z,83.06
2022-12-29T02:47:52.908Z,82.55
2022-12-29T02:50:27.155Z,81.82
2022-12-29T02:53:02.188Z,80.03
2022-12-29T02:55:29.036Z,81.06
2022-12-29T02:58:18.075Z,81.26
2022-12-29T03:01:03.214Z,82.08
2022-12-29T03:03:43.872Z,85.03
2022-12-29T03:06:24.362Z,81.82
2022-12-29T03:08:58.458Z,80.05
2022-12-29T03:11:52.859Z,79.32
2022-12-29T03:14:48.600Z,82.18
2022-12-29T03:17:26.410Z,81.25
2022-12-29T03:20:03.187Z,84.30
2022-12-29T03:22:34.526Z,82.46
2022-12-29T03:25:05.665Z,79.55
2022-12-29T03:27:37.302Z,81.42
2022-12-29T03:30:07.707Z,78.67
2022-12-29T03:32:38.148Z,81.64
2022-12-29T03:35:10.239Z,79.20
2022-12-29T03:37:42.406Z,79.08
2022-12-29T03:40:10.864Z,77.26
2022-12-29T03:42:40.024Z,77.26
2022-12-29T03:45:09.282Z,78.53
2022-12-29T03:47:36.884Z,79.35
2022-12-29T03:50:04.819Z,78.92
2022-12-29T03:52:33.540Z,77.83
2022-12-29T03:55:01.608Z,80.32
2022-12-29T03:57:29.051Z,80.63
2022-12-29T03:59:56.527Z,79.77
2022-12-29T04:02:24.808Z,77.55
2022-12-29T04:04:52.504Z,79.53
2022-12-29T04:07:19.917Z,81.61
2022-12-29T04:09:48.703Z,80.33
2022-12-29T04:12:16.339Z,80.32
2022-12-29T04:14:44.511Z,79.20
2022-12-29T04:17:11.940Z,79.21
2022-12-29T04:19:39.390Z,78.93
2022-12-29T04:22:06.851Z,77.17
2022-12-29T04:24:34.896Z,76.88
2022-12-29T04:27:03.652Z,79.44
2022-12-29T04:29:31.084Z,78.72
2022-12-29T04:31:58.525Z,78.71
2022-12-29T04:34:26.011Z,78.51
2022-12-29T04:36:53.481Z,78.06
2022-12-29T04:39:21.037Z,78.64
2022-12-29T04:41:48.459Z,77.34
2022-12-29T04:44:17.371Z,79.88
2022-12-29T04:46:45.691Z,77.46
2022-12-29T04:49:13.117Z,78.50
2022-12-29T04:51:40.532Z,78.42
2022-12-29T04:54:07.998Z,77.97
2022-12-29T04:56:35.544Z,79.48
2022-12-29T04:59:03.010Z,78.99
2022-12-29T05:01:31.800Z,79.23
2022-12-29T05:03:59.340Z,78.96
2022-12-29T05:06:26.935Z,79.98
2022-12-29T05:08:54.419Z,80.41
2022-12-29T05:11:21.805Z,79.24
2022-12-29T05:13:49.326Z,79.16
2022-12-29T05:16:16.752Z,81.21
2022-12-29T05:18:46.210Z,81.93
2022-12-29T05:21:13.660Z,79.29
2022-12-29T05:23:41.118Z,80.07
2022-12-29T05:26:08.558Z,78.77
2022-12-29T05:28:36.010Z,78.08
2022-12-29T05:31:03.564Z,79.94
2022-12-29T05:33:31.046Z,79.97
2022-12-29T05:36:05.832Z,78.92
2022-12-29T05:38:33.275Z,79.58
2022-12-29T05:41:00.653Z,79.14
2022-12-29T05:43:28.077Z,79.05
2022-12-29T05:45:56.556Z,81.88
2022-12-29T05:48:23.975Z,79.65
2022-12-29T05:50:52.216Z,78.71
2022-12-29T05:53:21.197Z,78.78
2022-12-29T05:55:49.625Z,80.50
2022-12-29T05:58:17.508Z,80.11
2022-12-29T06:00:45.259Z,78.23
2022-12-29T06:03:13.149Z,78.15
2022-12-29T06:05:40.718Z,81.77
2022-12-29T06:08:08.167Z,80.11
2022-12-29T06:10:36.964Z,79.62
2022-12-29T06:13:04.783Z,80.33
2022-12-29T06:15:32.209Z,80.31
2022-12-29T06:17:59.995Z,79.62
2022-12-29T06:20:27.495Z,79.15
2022-12-29T06:22:54.923Z,79.74
2022-12-29T06:25:22.399Z,81.04
2022-12-29T06:27:51.231Z,81.33
2022-12-29T06:30:18.825Z,80.42
2022-12-29T06:32:46.875Z,81.21
2022-12-29T06:35:14.278Z,80.20
2022-12-29T06:37:41.697Z,80.32
2022-12-29T06:40:10.264Z,79.63
2022-12-29T06:42:37.970Z,81.14
2022-12-29T06:45:08.383Z,80.24
2022-12-29T06:47:35.902Z,80.36
2022-12-29T06:50:04.544Z,79.82
2022-12-29T06:52:31.991Z,80.67
2022-12-29T06:54:59.894Z,82.19
2022-12-29T06:57:28.085Z,83.30
2022-12-29T06:59:56.584Z,81.04
2022-12-29T07:02:26.361Z,79.22
2022-12-29T07:04:54.321Z,82.31
2022-12-29T07:07:21.768Z,80.31
2022-12-29T07:09:49.302Z,82.41
2022-12-29T07:12:16.935Z,80.74
2022-12-29T07:14:44.872Z,81.16
2022-12-29T07:17:12.572Z,81.27
2022-12-29T07:19:41.334Z,81.82
2022-12-29T07:22:08.786Z,82.33
2022-12-29T07:24:36.258Z,80.95
2022-12-29T07:27:03.723Z,81.18
2022-12-29T07:29:31.116Z,79.35
2022-12-29T07:31:58.603Z,81.21
2022-12-29T07:34:26.044Z,80.16
2022-12-29T07:36:54.806Z,80.17
2022-12-29T07:39:22.254Z,79.48
2022-12-29T07:41:49.703Z,78.64
2022-12-29T07:44:17.160Z,81.33
2022-12-29T07:46:56.104Z,80.48
2022-12-29T07:49:24.706Z,82.49
2022-12-29T07:51:52.133Z,81.51
2022-12-29T07:54:20.886Z,81.07
2022-12-29T07:56:48.321Z,80.16
2022-12-29T07:59:15.809Z,81.53
2022-12-29T08:01:43.327Z,83.43
2022-12-29T08:04:10.912Z,81.88
2022-12-29T08:06:38.832Z,80.51
2022-12-29T08:09:16.471Z,81.65
2022-12-29T08:11:48.428Z,80.86
2022-12-29T08:14:15.861Z,79.25
2022-12-29T08:16:43.274Z,80.50
2022-12-29T08:19:12.088Z,81.46
2022-12-29T08:21:39.960Z,80.66
2022-12-29T08:24:08.220Z,82.45
2022-12-29T08:26:35.849Z,83.24
2022-12-29T08:29:04.913Z,80.75
2022-12-29T08:31:32.392Z,80.71
2022-12-29T08:34:00.951Z,81.91
2022-12-29T08:36:28.401Z,81.39
2022-12-29T08:38:55.871Z,81.48
2022-12-29T08:41:23.389Z,80.47
2022-12-29T08:43:51.581Z,79.67
2022-12-29T08:46:20.473Z,81.87
2022-12-29T08:48:47.959Z,81.31
2022-12-29T08:51:17.258Z,81.21
2022-12-29T08:53:46.515Z,80.85
2022-12-29T08:56:14.183Z,80.44
2022-12-29T08:58:41.991Z,80.26
2022-12-29T09:01:09.450Z,79.13
2022-12-29T09:04:13.066Z,77.85
2022-12-29T09:06:25.736Z,78.68
2022-12-29T09:08:55.708Z,77.40
2022-12-29T09:11:26.458Z,79.96
2022-12-29T09:13:54.866Z,78.71
2022-12-29T09:16:24.471Z,81.41
2022-12-29T09:18:53.366Z,79.02
2022-12-29T09:21:20.966Z,80.77
2022-12-29T09:23:49.393Z,79.02
2022-12-29T09:26:16.874Z,79.17
2022-12-29T09:28:45.248Z,80.25
2022-12-29T09:31:12.864Z,81.58
2022-12-29T09:33:40.454Z,82.19
2022-12-29T09:36:10.667Z,87.91
2022-12-29T09:38:38.155Z,88.17
2022-12-29T09:41:13.221Z,84.03
2022-12-29T09:44:08.354Z,77.09
2022-12-29T09:46:39.150Z,78.81
2022-12-29T09:49:16.495Z,73.30
2022-12-29T09:51:50.031Z,74.98
2022-12-29T09:54:31.699Z,76.52
2022-12-29T09:56:59.559Z,77.61
2022-12-29T09:59:32.903Z,79.36
2022-12-29T10:02:14.819Z,78.00
2022-12-29T10:04:44.162Z,78.03
2022-12-29T10:07:29.610Z,78.85
2022-12-29T10:10:05.063Z,77.65
2022-12-29T10:12:49.194Z,77.07
2022-12-29T10:15:31.917Z,77.84
2022-12-29T10:18:08.339Z,78.14
2022-12-29T10:20:43.869Z,79.25
2022-12-29T10:23:28.748Z,76.42
2022-12-29T10:25:57.509Z,78.38
2022-12-29T10:28:35.286Z,78.56
2022-12-29T10:31:09.023Z,78.54
2022-12-29T10:33:39.500Z,79.91
2022-12-29T10:36:15.753Z,78.56
2022-12-29T10:38:52.273Z,78.37
2022-12-29T10:41:25.768Z,77.87
2022-12-29T10:43:56.179Z,77.78
2022-12-29T10:46:27.423Z,76.77
2022-12-29T10:48:54.875Z,77.77
2022-12-29T10:51:26.246Z,78.02
2022-12-29T10:54:00.026Z,77.63
2022-12-29T10:56:34.575Z,77.28
2022-12-29T10:59:12.496Z,78.03
2022-12-29T11:01:47.898Z,77.57
2022-12-29T11:04:30.496Z,76.90
2022-12-29T11:06:59.115Z,76.97
2022-12-29T11:09:42.174Z,77.84
2022-12-29T11:12:22.588Z,77.83
2022-12-29T11:15:03.689Z,79.82
2022-12-29T11:17:31.143Z,80.14
2022-12-29T11:19:58.572Z,80.34
2022-12-29T11:22:30.172Z,78.85
2022-12-29T11:25:14.205Z,77.95
2022-12-29T11:27:56.474Z,79.88
2022-12-29T11:30:25.831Z,77.68
2022-12-29T11:32:54.481Z,78.74
2022-12-29T11:35:32.760Z,78.98
2022-12-29T11:38:01.239Z,79.85
2022-12-29T11:40:30.477Z,78.78
2022-12-29T11:43:00.528Z,80.65
2022-12-29T11:45:29.907Z,80.38
2022-12-29T11:48:00.872Z,81.29
2022-12-29T11:50:31.300Z,81.43
2022-12-29T11:53:02.129Z,80.83
2022-12-29T11:55:32.484Z,79.26
2022-12-29T11:58:04.537Z,80.59
2022-12-29T12:00:36.551Z,80.26
2022-12-29T12:03:06.470Z,82.62
2022-12-29T12:05:40.320Z,84.39
2022-12-29T12:08:20.724Z,85.41
2022-12-29T12:10:54.953Z,86.04
2022-12-29T12:13:27.658Z,86.69
2022-12-29T12:16:01.549Z,89.44
2022-12-29T12:18:37.675Z,89.97
2022-12-29T12:21:15.456Z,88.80
2022-12-29T12:23:58.249Z,90.64
2022-12-29T12:26:33.681Z,89.89
2022-12-29T12:29:06.885Z,87.97
2022-12-29T12:31:45.838Z,87.74
2022-12-29T12:34:19.073Z,84.90
2022-12-29T12:37:11.394Z,85.04
2022-12-29T12:39:49.557Z,85.31
2022-12-29T12:42:33.369Z,86.71
2022-12-29T12:45:19.418Z,85.19
2022-12-29T12:48:10.101Z,82.61
2022-12-29T12:50:51.145Z,85.91
2022-12-29T12:53:36.576Z,83.09
2022-12-29T12:56:23.999Z,85.45
2022-12-29T12:59:08.949Z,85.37
2022-12-29T13:01:44.039Z,85.39
2022-12-29T13:04:35.219Z,84.35
2022-12-29T13:07:12.255Z,85.73
2022-12-29T13:09:54.635Z,85.81
2022-12-29T13:12:33.029Z,85.27
2022-12-29T13:15:14.315Z,82.83
2022-12-29T13:17:47.819Z,82.36
2022-12-29T13:20:26.908Z,81.86
2022-12-29T13:23:00.107Z,84.41
2022-12-29T13:25:35.652Z,84.62
2022-12-29T13:28:12.485Z,85.15
2022-12-29T13:30:50.708Z,84.59
2022-12-29T13:33:27.032Z,82.46
2022-12-29T13:36:00.788Z,83.85
2022-12-29T13:38:34.418Z,85.91
2022-12-29T13:41:06.741Z,83.71
2022-12-29T13:43:40.544Z,84.00
2022-12-29T13:46:15.061Z,85.50
2022-12-29T13:48:47.828Z,84.71
2022-12-29T13:51:19.200Z,82.27
2022-12-29T13:54:11.802Z,85.16
2022-12-29T13:56:42.436Z,82.84
2022-12-29T13:59:18.370Z,83.45
2022-12-29T14:01:55.103Z,84.45
2022-12-29T14:04:25.971Z,83.73
2022-12-29T14:07:05.621Z,85.52
2022-12-29T14:09:45.258Z,84.39
2022-12-29T14:12:32.427Z,84.90
2022-12-29T14:15:16.355Z,85.71
2022-12-29T14:17:45.977Z,86.26
2022-12-29T14:20:21.824Z,85.83
2022-12-29T14:22:59.698Z,83.85
2022-12-29T14:25:59.246Z,87.08
2022-12-29T14:28:29.432Z,87.12
2022-12-29T14:30:58.082Z,83.54
2022-12-29T14:33:29.567Z,84.51
2022-12-29T14:35:57.515Z,87.46
2022-12-29T14:38:30.759Z,85.17
2022-12-29T14:41:20.897Z,86.40
2022-12-29T14:44:12.653Z,85.92
2022-12-29T14:46:50.067Z,84.07
2022-12-29T14:49:22.526Z,85.55
2022-12-29T14:51:52.646Z,87.72
2022-12-29T14:54:50.959Z,88.04
2022-12-29T14:57:26.980Z,83.86
2022-12-29T14:59:57.995Z,83.65
2022-12-29T15:02:27.927Z,83.21
2022-12-29T15:05:01.811Z,82.11
2022-12-29T15:07:31.218Z,83.42
2022-12-29T15:10:05.616Z,84.30
2022-12-29T15:12:40.328Z,84.83
2022-12-29T15:15:22.910Z,86.98
2022-12-29T15:17:50.313Z,86.58
2022-12-29T15:20:25.598Z,88.08
2022-12-29T15:22:57.416Z,88.17
2022-12-29T15:25:27.159Z,87.74
2022-12-29T15:27:59.007Z,86.03
2022-12-29T15:30:26.584Z,87.12
2022-12-29T15:32:54.082Z,83.45
2022-12-29T15:35:33.435Z,84.67
2022-12-29T15:38:04.187Z,82.99
2022-12-29T15:40:33.766Z,85.30
2022-12-29T15:43:26.041Z,83.67
2022-12-29T15:45:56.141Z,84.24
2022-12-29T15:48:26.299Z,82.93
2022-12-29T15:50:55.388Z,82.66
2022-12-29T15:53:29.146Z,83.52
2022-12-29T15:56:03.211Z,84.37
2022-12-29T15:58:32.797Z,85.95
2022-12-29T16:01:03.016Z,84.92
2022-12-29T16:03:34.673Z,83.14
2022-12-29T16:06:25.421Z,83.75
2022-12-29T16:08:58.520Z,81.84
2022-12-29T16:11:29.800Z,81.22
2022-12-29T16:13:58.147Z,83.53
2022-12-29T16:16:29.875Z,83.65
2022-12-29T16:18:58.642Z,82.25
2022-12-29T16:21:31.634Z,81.38
2022-12-29T16:24:03.325Z,79.13
2022-12-29T16:26:31.036Z,80.67
2022-12-29T16:29:00.434Z,79.61
2022-12-29T16:31:35.933Z,82.06
2022-12-29T16:34:13.543Z,81.10
2022-12-29T16:36:55.732Z,82.65
2022-12-29T16:39:29.107Z,82.12
2022-12-29T16:41:57.132Z,81.75
2022-12-29T16:44:27.489Z,82.45
2022-12-29T16:47:08.297Z,82.70
2022-12-29T16:49:37.669Z,81.11
2022-12-29T16:52:15.794Z,78.00
2022-12-29T16:54:44.330Z,77.46
2022-12-29T16:57:12.821Z,76.96
2022-12-29T16:59:43.468Z,74.74
2022-12-29T17:02:16.166Z,74.73
2022-12-29T17:04:44.853Z,77.19
2022-12-29T17:07:18.499Z,75.68
2022-12-29T17:09:46.108Z,74.72
2022-12-29T17:12:18.171Z,74.78
2022-12-29T17:14:48.190Z,75.94
2022-12-29T17:17:19.050Z,74.89
2022-12-29T17:19:49.301Z,74.27
2022-12-29T17:22:22.487Z,75.63
2022-12-29T17:24:50.394Z,76.03
2022-12-29T17:27:24.453Z,74.03
2022-12-29T17:29:53.960Z,72.65
2022-12-29T17:32:21.776Z,74.06
2022-12-29T17:34:49.163Z,74.17
2022-12-29T17:37:37.851Z,72.61
2022-12-29T17:40:07.687Z,74.21
2022-12-29T17:42:39.252Z,72.70
2022-12-29T17:45:07.574Z,73.48
2022-12-29T17:47:34.968Z,73.26
2022-12-29T17:50:02.473Z,73.13
2022-12-29T17:52:29.900Z,71.79
2022-12-29T17:54:58.691Z,72.98
2022-12-29T17:57:26.163Z,72.86
2022-12-29T17:59:53.578Z,85.37
2022-12-29T18:02:26.632Z,81.71
2022-12-29T18:04:54.619Z,81.38
2022-12-29T18:07:23.016Z,82.12
2022-12-29T18:09:50.529Z,77.11
2022-12-29T18:12:32.100Z,72.22
2022-12-29T18:14:59.645Z,79.53
2022-12-29T18:17:27.080Z,74.90
2022-12-29T18:19:55.649Z,76.06
2022-12-29T18:22:24.760Z,76.37
2022-12-29T18:24:52.661Z,75.97
2022-12-29T18:27:22.236Z,74.79
2022-12-29T18:29:51.266Z,68.86
2022-12-29T18:32:19.615Z,72.34
2022-12-29T18:34:47.264Z,73.16
2022-12-29T18:37:14.819Z,71.61
2022-12-29T18:39:42.245Z,67.43
2022-12-29T18:42:10.930Z,70.42
2022-12-29T18:44:38.650Z,71.38
2022-12-29T18:47:07.921Z,70.40
2022-12-29T18:49:35.352Z,71.31
2022-12-29T18:52:02.750Z,71.60
2022-12-29T18:54:32.148Z,70.95
2022-12-29T18:57:00.284Z,71.03
2022-12-29T18:59:27.751Z,72.20
2022-12-29T19:01:55.188Z,71.65
2022-12-29T19:04:24.109Z,72.61
2022-12-29T19:06:51.520Z,72.54
2022-12-29T19:09:18.990Z,72.16
2022-12-29T19:11:46.398Z,72.46
2022-12-29T19:14:17.296Z,73.36
2022-12-29T19:16:50.696Z,71.69
2022-12-29T19:19:18.137Z,72.69
2022-12-29T19:21:46.931Z,73.26
2022-12-29T19:24:14.353Z,72.84
2022-12-29T19:26:42.173Z,74.22
2022-12-29T19:29:15.352Z,75.18
2022-12-29T19:31:42.886Z,75.48
2022-12-29T19:34:14.039Z,76.11
2022-12-29T19:36:41.588Z,75.71
2022-12-29T19:39:10.473Z,75.22
2022-12-29T19:41:38.185Z,76.25
2022-12-29T19:44:05.764Z,74.75
2022-12-29T19:46:33.143Z,75.26
2022-12-29T19:49:01.022Z,74.18
2022-12-29T19:51:28.784Z,75.16
2022-12-29T19:53:58.380Z,74.91
2022-12-29T19:56:27.137Z,75.78
2022-12-29T19:58:54.575Z,74.17
2022-12-29T20:01:23.874Z,76.53
2022-12-29T20:03:52.602Z,77.54
2022-12-29T20:06:20.418Z,75.84
2022-12-29T20:08:47.856Z,75.90
2022-12-29T20:11:17.167Z,75.04
2022-12-29T20:13:46.926Z,75.67
2022-12-29T20:16:16.052Z,74.31
2022-12-29T20:18:43.826Z,74.35
2022-12-29T20:21:14.712Z,75.07
2022-12-29T20:23:43.688Z,74.27
2022-12-29T20:26:15.722Z,74.62
2022-12-29T20:28:43.272Z,75.27
2022-12-29T20:31:18.284Z,74.35
2022-12-29T20:33:46.381Z,74.73
2022-12-29T20:36:17.042Z,77.98
2022-12-29T20:38:45.659Z,76.73
2022-12-29T20:41:14.269Z,75.93
2022-12-29T20:43:42.456Z,77.14
2022-12-29T20:46:11.193Z,75.91
2022-12-29T20:48:39.961Z,76.22
2022-12-29T20:51:07.491Z,76.09
2022-12-29T20:53:38.000Z,77.87
2022-12-29T20:56:07.701Z,79.13
2022-12-29T20:58:52.579Z,77.52
2022-12-29T21:01:25.685Z,76.95
2022-12-29T21:03:54.635Z,77.55
2022-12-29T21:06:22.329Z,75.23
2022-12-29T21:08:50.065Z,75.41
2022-12-29T21:11:17.881Z,76.28
2022-12-29T21:13:45.999Z,76.44
2022-12-29T21:16:14.982Z,75.01
2022-12-29T21:18:43.016Z,74.26
2022-12-29T21:21:16.782Z,75.39
2022-12-29T21:23:44.250Z,75.08
2022-12-29T21:26:12.758Z,75.33
2022-12-29T21:28:41.556Z,74.42
2022-12-29T21:31:10.018Z,76.69
2022-12-29T21:33:38.413Z,75.70
2022-12-29T21:36:07.377Z,76.72
2022-12-29T21:38:36.843Z,75.01
2022-12-29T21:41:08.685Z,76.82
2022-12-29T21:43:36.873Z,76.33
2022-12-29T21:46:03.826Z,76.32
2022-12-29T21:48:31.417Z,76.27
2022-12-29T21:51:29.935Z,75.84
2022-12-29T21:54:21.348Z,75.31
2022-12-29T21:56:49.690Z,77.14
2022-12-29T21:59:35.400Z,77.05
2022-12-29T22:02:21.969Z,76.37
2022-12-29T22:05:07.775Z,75.94
2022-12-29T22:07:52.657Z,76.10
2022-12-29T22:10:39.152Z,76.58
2022-12-29T22:13:06.550Z,76.64
2022-12-29T22:15:36.376Z,74.73
2022-12-29T22:18:05.155Z,76.53
2022-12-29T22:20:34.578Z,74.88
2022-12-29T22:23:03.303Z,76.06
2022-12-29T22:25:32.205Z,74.22
2022-12-29T22:28:00.190Z,74.76
2022-12-29T22:30:27.966Z,76.78
2022-12-29T22:32:56.575Z,77.02
2022-12-29T22:35:24.760Z,74.81
2022-12-29T22:37:52.253Z,74.63
2022-12-29T22:40:20.149Z,72.41
2022-12-29T22:42:48.954Z,72.19
2022-12-29T22:45:16.792Z,73.38
2022-12-29T22:47:44.384Z,75.67
2022-12-29T22:50:11.941Z,73.64
2022-12-29T22:52:39.373Z,73.82
2022-12-29T22:55:08.398Z,72.79
2022-12-29T22:57:36.388Z,72.22
2022-12-29T23:00:09.023Z,72.92
2022-12-29T23:02:36.858Z,76.13
2022-12-29T23:05:05.450Z,73.96
2022-12-29T23:07:34.141Z,74.49
2022-12-29T23:10:01.636Z,74.40
2022-12-29T23:12:30.738Z,76.50
2022-12-29T23:14:58.235Z,75.05
2022-12-29T23:17:27.351Z,74.50
2022-12-29T23:19:55.214Z,73.16
2022-12-29T23:22:23.194Z,74.86
2022-12-29T23:24:50.628Z,73.21
2022-12-29T23:27:18.175Z,72.55
2022-12-29T23:29:45.625Z,74.03
2022-12-29T23:32:13.125Z,74.27
2022-12-29T23:34:41.966Z,74.68
2022-12-29T23:37:09.428Z,73.90
2022-12-29T23:39:36.886Z,74.77
2022-12-29T23:42:04.445Z,73.19
2022-12-29T23:44:31.878Z,73.67
2022-12-29T23:46:59.396Z,72.93
2022-12-29T23:49:26.891Z,70.83
2022-12-29T23:51:55.681Z,72.80
2022-12-29T23:54:23.089Z,71.38
2022-12-29T23:56:50.493Z,73.91
2022-12-29T23:59:17.899Z,73.29
